createdAt,value
2022-11-24T00:00:05.764Z,99.99
2022-11-24T00:01:05.765Z,99.99
2022-11-24T00:02:05.863Z,99.99
2022-11-24T00:03:05.909Z,99.99
2022-11-24T00:04:05.729Z,99.99
2022-11-24T00:05:05.710Z,99.99
2022-11-24T00:06:05.675Z,99.99
2022-11-24T00:07:05.824Z,99.99
2022-11-24T00:08:05.650Z,99.99
2022-11-24T00:09:05.672Z,99.99
2022-11-24T00:10:06.429Z,99.99
2022-11-24T00:11:05.634Z,99.99
2022-11-24T00:12:05.623Z,99.99
2022-11-24T00:13:05.622Z,99.99
2022-11-24T00:14:05.601Z,99.99
2022-11-24T00:15:05.598Z,99.99
2022-11-24T00:16:05.582Z,99.99
2022-11-24T00:17:05.653Z,99.99
2022-11-24T00:18:05.556Z,99.99
2022-11-24T00:19:05.566Z,99.99
2022-11-24T00:20:05.543Z,99.99
2022-11-24T00:21:05.522Z,99.99
2022-11-24T00:22:05.502Z,99.99
2022-11-24T00:23:05.509Z,99.99
2022-11-24T00:24:05.481Z,99.99
2022-11-24T00:25:05.503Z,99.99
2022-11-24T00:26:05.463Z,99.99
2022-11-24T00:27:05.462Z,99.99
2022-11-24T00:28:05.435Z,99.99
2022-11-24T00:29:05.430Z,99.99
2022-11-24T00:30:05.424Z,99.99
2022-11-24T00:31:05.457Z,99.99
2022-11-24T00:32:05.391Z,99.99
2022-11-24T00:33:05.403Z,99.99
2022-11-24T00:34:05.371Z,99.99
2022-11-24T00:35:05.390Z,99.99
2022-11-24T00:36:05.371Z,99.99
2022-11-24T00:37:05.351Z,99.99
2022-11-24T00:38:05.322Z,99.99
2022-11-24T00:39:05.310Z,99.99
2022-11-24T00:40:05.316Z,99.99
2022-11-24T00:41:05.292Z,99.99
2022-11-24T00:42:05.290Z,99.99
2022-11-24T00:43:05.278Z,99.99
2022-11-24T00:44:05.274Z,99.99
2022-11-24T00:45:13.580Z,99.99
2022-11-24T00:46:06.377Z,99.99
2022-11-24T00:47:05.367Z,99.99
2022-11-24T00:48:05.230Z,99.99
2022-11-24T00:49:05.225Z,99.99
2022-11-24T00:50:05.200Z,99.99
2022-11-24T00:51:05.183Z,99.99
2022-11-24T00:52:05.176Z,99.99
2022-11-24T00:53:05.172Z,99.99
2022-11-24T00:54:05.150Z,99.99
2022-11-24T00:55:05.164Z,99.99
2022-11-24T00:56:05.166Z,99.99
2022-11-24T00:57:05.130Z,99.99
2022-11-24T00:58:05.105Z,99.99
2022-11-24T00:59:05.152Z,99.99
2022-11-24T01:00:05.102Z,99.99
2022-11-24T01:01:05.155Z,99.99
2022-11-24T01:02:05.142Z,99.99
2022-11-24T01:03:05.104Z,99.99
2022-11-24T01:04:05.048Z,99.99
2022-11-24T01:05:05.030Z,99.99
2022-11-24T01:06:05.044Z,99.99
2022-11-24T01:07:05.015Z,99.99
2022-11-24T01:08:04.999Z,99.99
2022-11-24T01:09:05.011Z,99.99
2022-11-24T01:10:04.973Z,99.99
2022-11-24T01:11:04.987Z,99.99
2022-11-24T01:12:04.955Z,99.99
2022-11-24T01:13:04.944Z,99.99
2022-11-24T01:14:04.931Z,99.99
2022-11-24T01:15:04.931Z,99.99
2022-11-24T01:16:05.041Z,99.99
2022-11-24T01:17:04.892Z,99.99
2022-11-24T01:18:04.882Z,99.99
2022-11-24T01:19:04.975Z,99.99
2022-11-24T01:20:04.851Z,99.99
2022-11-24T01:21:09.848Z,99.99
2022-11-24T01:22:05.833Z,99.99
2022-11-24T01:23:04.824Z,99.99
2022-11-24T01:24:04.829Z,99.99
2022-11-24T01:25:04.831Z,99.99
2022-11-24T01:26:04.816Z,99.99
2022-11-24T01:27:04.792Z,99.99
2022-11-24T01:28:04.784Z,99.99
2022-11-24T01:29:04.776Z,99.99
2022-11-24T01:30:04.739Z,99.99
2022-11-24T01:31:04.798Z,99.99
2022-11-24T01:32:04.751Z,99.99
2022-11-24T01:33:04.732Z,99.99
2022-11-24T01:34:04.753Z,99.99
2022-11-24T01:35:04.695Z,99.99
2022-11-24T01:36:04.699Z,99.99
2022-11-24T01:37:04.672Z,99.99
2022-11-24T01:38:04.703Z,99.99
2022-11-24T01:39:04.639Z,99.99
2022-11-24T01:40:04.664Z,99.99
2022-11-24T01:41:04.632Z,99.99
2022-11-24T01:42:04.643Z,99.99
2022-11-24T01:43:04.612Z,99.99
2022-11-24T01:44:04.624Z,99.99
2022-11-24T01:45:04.583Z,99.99
2022-11-24T01:46:04.613Z,99.99
2022-11-24T01:47:04.584Z,99.99
2022-11-24T01:48:04.561Z,99.99
2022-11-24T01:49:04.568Z,99.99
2022-11-24T01:50:04.552Z,99.99
2022-11-24T01:51:04.524Z,99.99
2022-11-24T01:52:04.518Z,99.99
2022-11-24T01:53:04.497Z,99.99
2022-11-24T01:54:08.343Z,99.99
2022-11-24T01:55:04.504Z,99.99
2022-11-24T01:56:04.463Z,99.99
2022-11-24T01:57:04.452Z,99.99
2022-11-24T01:58:04.445Z,99.99
2022-11-24T01:59:04.429Z,99.99
2022-11-24T02:00:04.472Z,99.99
2022-11-24T02:01:04.474Z,99.99
2022-11-24T02:02:04.439Z,99.99
2022-11-24T02:03:04.436Z,99.99
2022-11-24T02:04:04.392Z,99.99
2022-11-24T02:05:04.356Z,99.99
2022-11-24T02:06:04.372Z,99.99
2022-11-24T02:07:04.332Z,99.99
2022-11-24T02:08:04.336Z,99.99
2022-11-24T02:09:04.316Z,99.99
2022-11-24T02:10:04.327Z,99.99
2022-11-24T02:11:04.288Z,99.99
2022-11-24T02:12:04.303Z,99.99
2022-11-24T02:13:04.271Z,99.99
2022-11-24T02:14:04.296Z,99.99
2022-11-24T02:15:04.241Z,99.99
2022-11-24T02:16:04.298Z,99.99
2022-11-24T02:17:04.232Z,99.99
2022-11-24T02:18:04.220Z,99.99
2022-11-24T02:19:07.985Z,99.99
2022-11-24T02:20:04.194Z,99.99
2022-11-24T02:21:04.203Z,99.99
2022-11-24T02:22:04.183Z,99.99
2022-11-24T02:23:04.151Z,99.99
2022-11-24T02:24:04.166Z,99.99
2022-11-24T02:25:04.143Z,99.99
2022-11-24T02:26:04.414Z,99.99
2022-11-24T02:27:04.123Z,99.99
2022-11-24T02:28:04.104Z,99.99
2022-11-24T02:29:04.084Z,99.99
2022-11-24T02:30:04.089Z,99.99
2022-11-24T02:31:04.088Z,99.99
2022-11-24T02:32:04.085Z,99.99
2022-11-24T02:33:04.066Z,99.99
2022-11-24T02:34:04.032Z,99.99
2022-11-24T02:35:04.024Z,99.99
2022-11-24T02:36:04.025Z,99.99
2022-11-24T02:37:04.006Z,99.99
2022-11-24T02:38:04.015Z,99.99
2022-11-24T02:39:04.004Z,99.99
2022-11-24T02:40:03.972Z,99.99
2022-11-24T02:41:03.961Z,99.99
2022-11-24T02:42:03.952Z,99.99
2022-11-24T02:43:03.935Z,99.99
2022-11-24T02:44:03.953Z,99.99
2022-11-24T02:45:03.912Z,99.99
2022-11-24T02:46:03.956Z,99.99
2022-11-24T02:47:03.893Z,99.99
2022-11-24T02:48:03.886Z,99.99
2022-11-24T02:49:03.859Z,99.99
2022-11-24T02:50:03.904Z,99.99
2022-11-24T02:51:03.835Z,99.99
2022-11-24T02:52:03.833Z,99.99
2022-11-24T02:53:03.825Z,99.99
2022-11-24T02:54:03.817Z,99.99
2022-11-24T02:55:03.801Z,99.99
2022-11-24T02:56:03.860Z,99.99
2022-11-24T02:57:03.777Z,99.99
2022-11-24T02:58:03.785Z,99.99
2022-11-24T02:59:03.752Z,99.96
2022-11-24T03:00:03.755Z,99.99
2022-11-24T03:01:04.081Z,99.99
2022-11-24T03:02:03.798Z,99.99
2022-11-24T03:03:03.780Z,99.99
2022-11-24T03:04:03.706Z,99.96
2022-11-24T03:05:03.688Z,99.96
2022-11-24T03:06:03.686Z,99.96
2022-11-24T03:07:03.765Z,99.96
2022-11-24T03:08:03.655Z,99.96
2022-11-24T03:09:03.662Z,99.96
2022-11-24T03:10:03.637Z,99.76
2022-11-24T03:11:03.620Z,99.65
2022-11-24T03:12:03.614Z,99.65
2022-11-24T03:13:03.606Z,99.44
2022-11-24T03:14:03.593Z,99.34
2022-11-24T03:15:03.567Z,99.24
2022-11-24T03:16:03.620Z,99.19
2022-11-24T03:17:03.559Z,98.99
2022-11-24T03:18:03.575Z,98.88
2022-11-24T03:19:03.539Z,98.79
2022-11-24T03:20:05.091Z,98.68
2022-11-24T03:21:03.493Z,98.58
2022-11-24T03:22:03.509Z,98.47
2022-11-24T03:23:03.476Z,98.37
2022-11-24T03:24:03.498Z,98.27
2022-11-24T03:25:03.475Z,98.16
2022-11-24T03:26:03.486Z,98.16
2022-11-24T03:27:03.436Z,97.96
2022-11-24T03:28:03.438Z,97.86
2022-11-24T03:29:03.415Z,97.86
2022-11-24T03:30:03.434Z,97.86
2022-11-24T03:31:03.465Z,98.06
2022-11-24T03:32:03.397Z,98.06
2022-11-24T03:33:03.368Z,98.16
2022-11-24T03:34:03.368Z,98.16
2022-11-24T03:35:03.362Z,98.27
2022-11-24T03:36:03.380Z,98.47
2022-11-24T03:37:03.316Z,98.47
2022-11-24T03:38:03.327Z,98.58
2022-11-24T03:39:03.382Z,98.47
2022-11-24T03:40:03.363Z,98.37
2022-11-24T03:41:03.287Z,98.27
2022-11-24T03:42:03.286Z,98.27
2022-11-24T03:43:03.267Z,98.27
2022-11-24T03:44:03.272Z,98.27
2022-11-24T03:45:29.825Z,98.37
2022-11-24T03:46:04.403Z,98.37
2022-11-24T03:47:03.217Z,98.37
2022-11-24T03:48:04.306Z,98.58
2022-11-24T03:49:03.207Z,98.68
2022-11-24T03:50:03.202Z,98.47
2022-11-24T03:51:03.208Z,98.27
2022-11-24T03:52:07.787Z,98.37
2022-11-24T03:53:04.148Z,98.27
2022-11-24T03:54:03.148Z,98.27
2022-11-24T03:55:03.139Z,98.27
2022-11-24T03:56:03.115Z,98.37
2022-11-24T03:57:03.135Z,98.47
2022-11-24T03:58:03.107Z,98.47
2022-11-24T03:59:03.086Z,98.58
2022-11-24T04:00:03.087Z,98.58
2022-11-24T04:01:03.060Z,98.47
2022-11-24T04:02:03.096Z,98.47
2022-11-24T04:03:03.091Z,98.47
2022-11-24T04:04:03.036Z,98.37
2022-11-24T04:05:03.016Z,98.47
2022-11-24T04:06:03.015Z,98.47
2022-11-24T04:07:03.019Z,98.37
2022-11-24T04:08:02.999Z,98.27
2022-11-24T04:09:02.969Z,98.16
2022-11-24T04:10:02.970Z,98.06
2022-11-24T04:11:02.978Z,98.02
2022-11-24T04:12:02.952Z,97.91
2022-11-24T04:13:02.951Z,97.91
2022-11-24T04:14:02.933Z,97.96
2022-11-24T04:15:02.896Z,97.71
2022-11-24T04:16:02.935Z,97.61
2022-11-24T04:17:02.885Z,97.50
2022-11-24T04:18:02.908Z,97.50
2022-11-24T04:19:02.860Z,97.50
2022-11-24T04:20:02.861Z,97.40
2022-11-24T04:21:02.833Z,97.40
2022-11-24T04:22:02.840Z,97.50
2022-11-24T04:23:02.816Z,97.50
2022-11-24T04:24:02.829Z,97.30
2022-11-24T04:25:02.796Z,97.19
2022-11-24T04:26:02.789Z,97.19
2022-11-24T04:27:02.779Z,97.09
2022-11-24T04:28:03.593Z,97.09
2022-11-24T04:29:02.758Z,97.19
2022-11-24T04:30:02.741Z,97.30
2022-11-24T04:31:02.761Z,97.40
2022-11-24T04:32:02.736Z,97.50
2022-11-24T04:33:02.728Z,97.61
2022-11-24T04:34:02.710Z,97.61
2022-11-24T04:35:02.679Z,97.71
2022-11-24T04:36:02.680Z,97.81
2022-11-24T04:37:02.657Z,97.81
2022-11-24T04:38:02.676Z,97.81
2022-11-24T04:39:24.377Z,98.02
2022-11-24T04:40:03.632Z,97.96
2022-11-24T04:41:02.619Z,98.02
2022-11-24T04:42:02.615Z,97.71
2022-11-24T04:43:02.589Z,97.61
2022-11-24T04:44:02.592Z,97.61
2022-11-24T04:45:02.576Z,97.50
2022-11-24T04:46:02.576Z,97.30
2022-11-24T04:47:02.588Z,97.19
2022-11-24T04:48:02.549Z,97.05
2022-11-24T04:49:02.809Z,96.94
2022-11-24T04:50:02.518Z,96.84
2022-11-24T04:51:02.521Z,96.94
2022-11-24T04:52:02.489Z,96.94
2022-11-24T04:53:02.488Z,96.84
2022-11-24T04:54:02.498Z,96.73
2022-11-24T04:55:02.480Z,96.73
2022-11-24T04:56:02.477Z,96.84
2022-11-24T04:57:02.438Z,96.73
2022-11-24T04:58:02.432Z,96.64
2022-11-24T04:59:07.839Z,96.64
2022-11-24T05:00:03.431Z,96.64
2022-11-24T05:01:02.389Z,96.64
2022-11-24T05:02:02.495Z,96.33
2022-11-24T05:03:02.371Z,96.33
2022-11-24T05:04:02.452Z,96.33
2022-11-24T05:05:02.357Z,96.22
2022-11-24T05:06:02.341Z,96.22
2022-11-24T05:07:02.325Z,96.22
2022-11-24T05:08:02.395Z,96.22
2022-11-24T05:09:02.302Z,96.43
2022-11-24T05:10:02.316Z,96.43
2022-11-24T05:11:02.281Z,96.43
2022-11-24T05:12:02.287Z,96.43
2022-11-24T05:13:02.320Z,96.64
2022-11-24T05:14:02.249Z,96.64
2022-11-24T05:15:02.256Z,96.73
2022-11-24T05:16:02.309Z,96.94
2022-11-24T05:17:02.239Z,96.94
2022-11-24T05:18:02.210Z,96.84
2022-11-24T05:19:02.200Z,96.94
2022-11-24T05:20:02.190Z,96.84
2022-11-24T05:21:02.179Z,96.94
2022-11-24T05:22:02.169Z,96.94
2022-11-24T05:23:02.157Z,96.94
2022-11-24T05:24:02.165Z,96.94
2022-11-24T05:25:02.138Z,96.94
2022-11-24T05:26:02.130Z,96.94
2022-11-24T05:27:02.102Z,96.94
2022-11-24T05:28:02.107Z,97.05
2022-11-24T05:29:02.097Z,97.05
2022-11-24T05:30:02.101Z,97.15
2022-11-24T05:31:02.133Z,97.15
2022-11-24T05:32:02.058Z,96.94
2022-11-24T05:33:02.039Z,96.84
2022-11-24T05:34:02.030Z,96.94
2022-11-24T05:35:02.022Z,96.94
2022-11-24T05:36:02.031Z,96.94
2022-11-24T05:37:01.979Z,96.73
2022-11-24T05:38:01.981Z,96.84
2022-11-24T05:39:01.987Z,96.53
2022-11-24T05:40:02.011Z,96.33
2022-11-24T05:41:01.958Z,96.18
2022-11-24T05:42:01.942Z,96.28
2022-11-24T05:43:01.949Z,96.39
2022-11-24T05:44:01.920Z,96.59
2022-11-24T05:45:01.937Z,96.69
2022-11-24T05:46:01.915Z,96.69
2022-11-24T05:47:02.018Z,96.80
2022-11-24T05:48:01.878Z,96.69
2022-11-24T05:49:01.857Z,96.80
2022-11-24T05:50:01.877Z,96.80
2022-11-24T05:51:06.450Z,96.90
2022-11-24T05:52:02.817Z,97.10
2022-11-24T05:53:01.845Z,97.31
2022-11-24T05:54:01.803Z,97.62
2022-11-24T05:55:01.802Z,98.13
2022-11-24T05:56:01.802Z,98.54
2022-11-24T05:57:01.769Z,99.05
2022-11-24T05:58:01.762Z,99.47
2022-11-24T05:59:06.677Z,99.67
2022-11-24T06:00:02.742Z,99.99
2022-11-24T06:01:01.749Z,99.99
2022-11-24T06:02:01.933Z,99.99
2022-11-24T06:03:01.837Z,99.99
2022-11-24T06:04:01.690Z,99.99
2022-11-24T06:05:01.694Z,99.99
2022-11-24T06:06:01.689Z,99.99
2022-11-24T06:07:01.658Z,99.99
2022-11-24T06:08:01.641Z,99.99
2022-11-24T06:09:01.631Z,99.99
2022-11-24T06:10:01.627Z,99.99
2022-11-24T06:11:01.611Z,99.99
2022-11-24T06:12:01.622Z,99.99
2022-11-24T06:13:01.788Z,99.99
2022-11-24T06:14:01.586Z,99.99
2022-11-24T06:15:01.590Z,99.99
2022-11-24T06:16:01.614Z,99.99
2022-11-24T06:17:01.639Z,99.99
2022-11-24T06:18:01.534Z,99.99
2022-11-24T06:19:01.536Z,99.99
2022-11-24T06:20:01.532Z,99.99
2022-11-24T06:21:10.729Z,99.99
2022-11-24T06:22:02.529Z,99.99
2022-11-24T06:23:01.498Z,99.99
2022-11-24T06:24:01.482Z,99.99
2022-11-24T06:25:01.470Z,99.99
2022-11-24T06:26:01.520Z,99.99
2022-11-24T06:27:01.442Z,99.99
2022-11-24T06:28:01.438Z,99.99
2022-11-24T06:29:01.455Z,99.99
2022-11-24T06:30:01.401Z,99.99
2022-11-24T06:31:01.430Z,99.99
2022-11-24T06:32:01.488Z,99.99
2022-11-24T06:33:01.371Z,99.99
2022-11-24T06:34:01.364Z,99.99
2022-11-24T06:35:01.362Z,99.99
2022-11-24T06:36:01.354Z,99.99
2022-11-24T06:37:01.431Z,99.99
2022-11-24T06:38:01.319Z,99.99
2022-11-24T06:39:01.330Z,99.99
2022-11-24T06:40:01.290Z,99.99
2022-11-24T06:41:01.291Z,99.99
2022-11-24T06:42:01.270Z,99.99
2022-11-24T06:43:01.263Z,99.99
2022-11-24T06:44:01.252Z,99.99
2022-11-24T06:45:01.243Z,99.99
2022-11-24T06:46:01.298Z,99.99
2022-11-24T06:47:01.214Z,99.99
2022-11-24T06:48:01.203Z,99.99
2022-11-24T06:49:01.190Z,99.99
2022-11-24T06:50:01.183Z,99.99
2022-11-24T06:51:01.194Z,99.99
2022-11-24T06:52:01.150Z,99.99
2022-11-24T06:53:01.183Z,99.99
2022-11-24T06:54:01.139Z,99.99
2022-11-24T06:55:01.142Z,99.99
2022-11-24T06:56:01.124Z,99.99
2022-11-24T06:57:01.110Z,99.99
2022-11-24T06:58:01.123Z,99.99
2022-11-24T06:59:01.083Z,99.99
2022-11-24T07:00:01.063Z,99.99
2022-11-24T07:01:01.155Z,99.99
2022-11-24T07:02:01.065Z,99.99
2022-11-24T07:03:01.132Z,99.99
2022-11-24T07:04:01.031Z,99.99
2022-11-24T07:05:01.012Z,99.99
2022-11-24T07:06:00.995Z,99.99
2022-11-24T07:07:01.005Z,99.99
2022-11-24T07:08:00.984Z,99.99
2022-11-24T07:09:01.023Z,99.99
2022-11-24T07:10:00.951Z,99.99
2022-11-24T07:11:00.943Z,99.99
2022-11-24T07:12:00.923Z,99.99
2022-11-24T07:13:00.955Z,99.99
2022-11-24T07:14:00.911Z,99.99
2022-11-24T07:15:00.903Z,99.99
2022-11-24T07:16:00.936Z,99.99
2022-11-24T07:17:00.885Z,99.99
2022-11-24T07:18:00.895Z,99.99
2022-11-24T07:19:00.864Z,99.99
2022-11-24T07:20:00.859Z,99.99
2022-11-24T07:21:00.853Z,99.99
2022-11-24T07:22:00.811Z,99.99
2022-11-24T07:23:00.810Z,99.99
2022-11-24T07:24:00.812Z,99.99
2022-11-24T07:25:00.811Z,99.99
2022-11-24T07:26:05.322Z,99.99
2022-11-24T07:27:01.775Z,99.99
2022-11-24T07:28:00.743Z,99.99
2022-11-24T07:29:00.752Z,99.99
2022-11-24T07:30:00.743Z,99.99
2022-11-24T07:31:00.726Z,99.99
2022-11-24T07:32:05.196Z,99.99
2022-11-24T07:33:00.695Z,99.99
2022-11-24T07:34:00.711Z,99.99
2022-11-24T07:35:00.705Z,99.99
2022-11-24T07:36:00.651Z,99.99
2022-11-24T07:37:00.671Z,99.99
2022-11-24T07:38:00.647Z,99.99
2022-11-24T07:39:00.647Z,99.99
2022-11-24T07:40:00.632Z,99.99
2022-11-24T07:41:00.653Z,99.99
2022-11-24T07:42:00.712Z,99.99
2022-11-24T07:43:00.593Z,99.99
2022-11-24T07:44:00.593Z,99.99
2022-11-24T07:45:00.613Z,99.99
2022-11-24T07:46:00.633Z,99.99
2022-11-24T07:47:00.546Z,99.99
2022-11-24T07:48:00.532Z,99.99
2022-11-24T07:49:00.532Z,99.99
2022-11-24T07:50:00.497Z,99.99
2022-11-24T07:51:00.563Z,99.99
2022-11-24T07:52:00.493Z,99.99
2022-11-24T07:53:00.471Z,99.99
2022-11-24T07:54:00.463Z,99.99
2022-11-24T07:55:00.491Z,99.99
2022-11-24T07:56:00.534Z,99.99
2022-11-24T07:57:00.425Z,99.99
2022-11-24T07:58:00.464Z,99.99
2022-11-24T07:59:00.445Z,99.99
2022-11-24T08:00:00.394Z,99.99
2022-11-24T08:01:00.434Z,99.99
2022-11-24T08:02:00.448Z,99.99
2022-11-24T08:03:00.370Z,99.99
2022-11-24T08:04:00.395Z,99.99
2022-11-24T08:05:00.347Z,99.99
2022-11-24T08:06:23.222Z,99.99
2022-11-24T08:07:01.331Z,99.99
2022-11-24T08:08:00.311Z,99.99
2022-11-24T08:09:00.300Z,99.99
2022-11-24T08:10:00.279Z,99.99
2022-11-24T08:11:00.285Z,99.99
2022-11-24T08:12:00.538Z,99.99
2022-11-24T08:13:00.285Z,99.99
2022-11-24T08:14:00.232Z,99.99
2022-11-24T08:15:00.250Z,99.99
2022-11-24T08:16:00.217Z,99.99
2022-11-24T08:17:00.302Z,99.99
2022-11-24T08:18:00.214Z,99.99
2022-11-24T08:19:00.204Z,99.99
2022-11-24T08:20:00.177Z,99.99
2022-11-24T08:21:00.164Z,99.99
2022-11-24T08:22:00.165Z,99.99
2022-11-24T08:23:00.159Z,99.99
2022-11-24T08:24:00.122Z,99.99
2022-11-24T08:25:00.134Z,99.99
2022-11-24T08:26:00.105Z,99.99
2022-11-24T08:27:00.112Z,99.99
2022-11-24T08:28:00.089Z,99.99
2022-11-24T08:29:00.098Z,99.99
2022-11-24T08:30:00.088Z,99.99
2022-11-24T08:31:00.054Z,99.99
2022-11-24T08:32:00.106Z,99.99
2022-11-24T08:33:00.045Z,99.99
2022-11-24T08:34:00.078Z,99.99
2022-11-24T08:35:13.415Z,99.99
2022-11-24T08:36:00.993Z,99.99
2022-11-24T08:36:59.993Z,99.99
2022-11-24T08:38:04.555Z,99.99
2022-11-24T08:38:59.981Z,99.99
2022-11-24T08:39:59.954Z,99.99
2022-11-24T08:40:59.995Z,99.99
2022-11-24T08:41:59.925Z,99.99
2022-11-24T08:42:59.925Z,99.99
2022-11-24T08:43:59.935Z,99.99
2022-11-24T08:45:04.951Z,99.77
2022-11-24T08:46:00.919Z,99.99
2022-11-24T08:46:59.886Z,99.99
2022-11-24T08:47:59.870Z,99.88
2022-11-24T08:48:59.886Z,99.88
2022-11-24T08:49:59.846Z,99.98
2022-11-24T08:50:59.833Z,99.77
2022-11-24T08:51:59.833Z,99.77
2022-11-24T08:52:59.813Z,99.77
2022-11-24T08:53:59.794Z,99.26
2022-11-24T08:54:59.888Z,99.26
2022-11-24T08:55:59.779Z,99.16
2022-11-24T08:56:59.777Z,98.91
2022-11-24T08:57:59.746Z,98.91
2022-11-24T08:58:59.853Z,98.80
2022-11-24T08:59:59.738Z,98.80
2022-11-24T09:00:59.769Z,98.50
2022-11-24T09:01:59.764Z,98.50
2022-11-24T09:02:59.703Z,98.50
2022-11-24T09:03:59.761Z,98.91
2022-11-24T09:04:59.694Z,98.70
2022-11-24T09:05:59.654Z,98.19
2022-11-24T09:06:59.698Z,98.08
2022-11-24T09:07:59.642Z,98.08
2022-11-24T09:08:59.633Z,98.19
2022-11-24T09:09:59.619Z,98.29
2022-11-24T09:10:59.633Z,97.88
2022-11-24T09:11:59.594Z,97.57
2022-11-24T09:12:59.595Z,97.57
2022-11-24T09:13:59.573Z,97.67
2022-11-24T09:14:59.585Z,97.67
2022-11-24T09:15:59.738Z,97.67
2022-11-24T09:16:59.569Z,97.53
2022-11-24T09:17:59.525Z,97.32
2022-11-24T09:18:59.518Z,97.94
2022-11-24T09:19:59.539Z,97.73
2022-11-24T09:20:59.498Z,98.14
2022-11-24T09:21:59.474Z,98.19
2022-11-24T09:22:59.498Z,97.88
2022-11-24T09:23:59.448Z,97.88
2022-11-24T09:24:59.465Z,99.07
2022-11-24T09:25:59.458Z,99.68
2022-11-24T09:26:59.513Z,99.99
2022-11-24T09:27:59.415Z,99.79
2022-11-24T09:28:59.427Z,99.99
2022-11-24T09:29:59.458Z,99.83
2022-11-24T09:30:59.433Z,99.99
2022-11-24T09:32:05.113Z,99.99
2022-11-24T09:33:00.367Z,99.99
2022-11-24T09:33:59.355Z,99.99
2022-11-24T09:34:59.339Z,99.99
2022-11-24T09:35:59.351Z,99.99
2022-11-24T09:36:59.334Z,99.99
2022-11-24T09:37:59.319Z,99.99
2022-11-24T09:38:59.319Z,99.99
2022-11-24T09:39:59.296Z,99.99
2022-11-24T09:40:59.307Z,99.99
2022-11-24T09:41:59.267Z,99.99
2022-11-24T09:42:59.259Z,99.99
2022-11-24T09:43:59.235Z,99.99
2022-11-24T09:44:59.228Z,99.99
2022-11-24T09:46:06.796Z,99.99
2022-11-24T09:47:00.266Z,99.99
2022-11-24T09:47:59.215Z,99.99
2022-11-24T09:48:59.199Z,99.99
2022-11-24T09:49:59.169Z,99.99
2022-11-24T09:50:59.175Z,99.99
2022-11-24T09:51:59.167Z,99.99
2022-11-24T09:52:59.148Z,99.99
2022-11-24T09:53:59.134Z,99.99
2022-11-24T09:54:59.121Z,99.99
2022-11-24T09:55:59.104Z,99.99
2022-11-24T09:56:59.137Z,99.99
2022-11-24T09:57:59.079Z,99.99
2022-11-24T09:58:59.082Z,99.99
2022-11-24T09:59:59.055Z,99.99
2022-11-24T10:00:59.125Z,99.99
2022-11-24T10:01:59.231Z,99.99
2022-11-24T10:02:59.030Z,99.99
2022-11-24T10:04:05.568Z,99.99
2022-11-24T10:05:00.022Z,99.99
2022-11-24T10:05:59.003Z,99.99
2022-11-24T10:06:59.002Z,99.99
2022-11-24T10:07:59.057Z,99.99
2022-11-24T10:08:59.003Z,99.99
2022-11-24T10:09:58.951Z,99.88
2022-11-24T10:10:58.961Z,99.67
2022-11-24T10:11:58.979Z,99.16
2022-11-24T10:12:58.920Z,99.11
2022-11-24T10:13:58.906Z,99.32
2022-11-24T10:14:58.901Z,98.39
2022-11-24T10:15:58.974Z,97.57
2022-11-24T10:16:58.899Z,97.47
2022-11-24T10:17:58.876Z,97.16
2022-11-24T10:18:58.839Z,97.57
2022-11-24T10:19:58.848Z,97.67
2022-11-24T10:20:58.820Z,97.47
2022-11-24T10:21:58.812Z,97.37
2022-11-24T10:22:58.799Z,97.47
2022-11-24T10:23:58.814Z,97.88
2022-11-24T10:24:59.174Z,96.85
2022-11-24T10:25:58.785Z,96.95
2022-11-24T10:26:58.747Z,96.85
2022-11-24T10:27:58.780Z,96.34
2022-11-24T10:28:58.753Z,96.55
2022-11-24T10:29:58.741Z,96.55
2022-11-24T10:30:58.779Z,96.23
2022-11-24T10:31:58.707Z,96.03
2022-11-24T10:32:58.710Z,96.50
2022-11-24T10:33:58.701Z,96.81
2022-11-24T10:34:58.796Z,96.09
2022-11-24T10:35:58.674Z,95.98
2022-11-24T10:36:58.653Z,95.68
2022-11-24T10:37:58.641Z,95.72
2022-11-24T10:38:58.660Z,96.23
2022-11-24T10:40:00.207Z,96.23
2022-11-24T10:40:58.750Z,96.14
2022-11-24T10:41:58.631Z,96.65
2022-11-24T10:42:58.603Z,97.06
2022-11-24T10:43:58.619Z,97.67
2022-11-24T10:44:58.565Z,97.88
2022-11-24T10:45:58.589Z,98.03
2022-11-24T10:46:58.583Z,98.50
2022-11-24T10:47:58.531Z,98.60
2022-11-24T10:48:58.519Z,98.50
2022-11-24T10:49:58.511Z,98.50
2022-11-24T10:50:58.488Z,98.75
2022-11-24T10:51:58.513Z,98.65
2022-11-24T10:52:58.481Z,98.54
2022-11-24T10:53:59.803Z,98.65
2022-11-24T10:54:58.470Z,98.60
2022-11-24T10:55:58.428Z,98.50
2022-11-24T10:56:58.434Z,98.50
2022-11-24T10:57:58.420Z,98.60
2022-11-24T10:58:58.411Z,98.91
2022-11-24T10:59:58.402Z,98.91
2022-11-24T11:00:58.442Z,99.32
2022-11-24T11:01:58.454Z,99.11
2022-11-24T11:02:58.416Z,99.01
2022-11-24T11:03:58.402Z,99.32
2022-11-24T11:04:58.355Z,99.42
2022-11-24T11:05:58.329Z,99.32
2022-11-24T11:06:58.313Z,99.42
2022-11-24T11:08:03.914Z,99.42
2022-11-24T11:08:59.289Z,99.32
2022-11-24T11:09:58.301Z,99.42
2022-11-24T11:10:58.288Z,99.52
2022-11-24T11:11:59.167Z,99.37
2022-11-24T11:12:59.248Z,99.26
2022-11-24T11:14:03.377Z,99.26
2022-11-24T11:14:59.276Z,99.67
2022-11-24T11:15:58.311Z,99.77
2022-11-24T11:16:58.192Z,99.67
2022-11-24T11:17:58.208Z,99.67
2022-11-24T11:18:58.181Z,99.57
2022-11-24T11:20:02.325Z,99.47
2022-11-24T11:20:58.173Z,99.57
2022-11-24T11:21:58.154Z,99.47
2022-11-24T11:22:58.133Z,99.37
2022-11-24T11:23:58.144Z,99.05
2022-11-24T11:24:58.133Z,99.16
2022-11-24T11:25:58.118Z,98.85
2022-11-24T11:26:58.089Z,98.65
2022-11-24T11:27:58.121Z,98.85
2022-11-24T11:31:15.079Z,98.96
2022-11-24T11:31:18.118Z,99.21
2022-11-24T11:34:09.532Z,99.11
2022-11-24T11:34:59.017Z,99.32
2022-11-24T11:35:57.993Z,99.21
2022-11-24T11:36:58.013Z,99.01
2022-11-24T11:37:57.973Z,99.11
2022-11-24T11:38:57.952Z,99.42
2022-11-24T11:39:57.961Z,99.32
2022-11-24T11:40:57.936Z,98.70
2022-11-24T11:41:57.940Z,98.39
2022-11-24T11:43:02.818Z,98.50
2022-11-24T11:43:58.921Z,98.50
2022-11-24T11:44:57.892Z,98.50
2022-11-24T11:45:58.007Z,98.60
2022-11-24T11:46:57.908Z,98.70
2022-11-24T11:47:57.878Z,98.60
2022-11-24T11:48:57.884Z,98.50
2022-11-24T11:49:57.872Z,98.80
2022-11-24T11:51:22.253Z,98.29
2022-11-24T11:51:58.852Z,98.50
2022-11-24T11:52:57.781Z,98.70
2022-11-24T11:53:57.839Z,98.80
2022-11-24T11:54:57.811Z,98.80
2022-11-24T11:55:57.773Z,98.80
2022-11-24T11:56:57.766Z,98.19
2022-11-24T11:57:57.741Z,98.19
2022-11-24T11:58:57.750Z,98.55
2022-11-24T11:59:57.743Z,98.35
2022-11-24T12:00:57.717Z,98.45
2022-11-24T12:01:57.703Z,98.14
2022-11-24T12:02:57.871Z,98.04
2022-11-24T12:03:57.905Z,97.63
2022-11-24T12:04:57.661Z,97.83
2022-11-24T12:05:57.662Z,97.73
2022-11-24T12:06:57.665Z,97.63
2022-11-24T12:07:57.684Z,97.83
2022-11-24T12:09:19.379Z,97.42
2022-11-24T12:09:58.923Z,97.42
2022-11-24T12:10:57.596Z,97.42
2022-11-24T12:11:57.590Z,97.22
2022-11-24T12:12:57.606Z,97.32
2022-11-24T12:13:57.628Z,97.02
2022-11-24T12:14:57.551Z,96.91
2022-11-24T12:15:57.656Z,96.97
2022-11-24T12:16:57.533Z,96.87
2022-11-24T12:17:57.524Z,96.77
2022-11-24T12:18:58.612Z,96.56
2022-11-24T12:19:57.493Z,96.25
2022-11-24T12:20:57.485Z,96.45
2022-11-24T12:21:57.507Z,96.35
2022-11-24T12:22:57.495Z,96.45
2022-11-24T12:23:57.461Z,96.77
2022-11-24T12:24:57.472Z,96.66
2022-11-24T12:25:57.485Z,96.56
2022-11-24T12:26:57.444Z,96.66
2022-11-24T12:27:57.414Z,96.04
2022-11-24T12:28:57.417Z,96.04
2022-11-24T12:29:57.383Z,96.15
2022-11-24T12:30:57.446Z,96.04
2022-11-24T12:31:57.382Z,96.15
2022-11-24T12:32:57.354Z,96.04
2022-11-24T12:34:01.135Z,96.04
2022-11-24T12:34:57.333Z,96.15
2022-11-24T12:35:57.333Z,95.94
2022-11-24T12:36:57.353Z,96.04
2022-11-24T12:37:57.303Z,96.15
2022-11-24T12:38:57.287Z,96.35
2022-11-24T12:39:57.332Z,96.25
2022-11-24T12:41:18.317Z,96.04
2022-11-24T12:41:58.280Z,96.25
2022-11-24T12:42:57.266Z,96.35
2022-11-24T12:43:57.273Z,96.56
2022-11-24T12:44:57.222Z,96.56
2022-11-24T12:45:57.214Z,96.56
2022-11-24T12:46:57.247Z,96.45
2022-11-24T12:47:57.221Z,96.35
2022-11-24T12:48:57.166Z,96.25
2022-11-24T12:49:57.193Z,96.35
2022-11-24T12:50:57.144Z,96.45
2022-11-24T12:51:57.165Z,96.15
2022-11-24T12:52:58.934Z,96.15
2022-11-24T12:53:57.114Z,96.15
2022-11-24T12:54:57.116Z,96.35